createdAt,value
2017-11-05T00:00:29.617Z,997.1
2017-11-05T00:01:31.866Z,997
2017-11-05T00:02:33.889Z,997
2017-11-05T00:03:35.923Z,997
2017-11-05T00:04:37.950Z,997
2017-11-05T00:05:40.006Z,996.9
2017-11-05T00:06:42.034Z,997
2017-11-05T00:07:44.229Z,997
2017-11-05T00:08:46.321Z,997
2017-11-05T00:09:48.433Z,997
2017-11-05T00:10:52.016Z,997
2017-11-05T00:11:54.043Z,997
2017-11-05T00:12:56.193Z,997.1
2017-11-05T00:13:59.287Z,997
2017-11-05T00:15:01.350Z,997
2017-11-05T00:16:04.151Z,997
2017-11-05T00:17:06.328Z,997
2017-11-05T00:18:08.364Z,997.1
2017-11-05T00:19:10.380Z,997.1
2017-11-05T00:20:12.407Z,997.1
2017-11-05T00:21:14.430Z,997.1
2017-11-05T00:22:16.458Z,997.1
2017-11-05T00:23:18.480Z,997.1
2017-11-05T00:24:20.498Z,997.1
2017-11-05T00:25:22.534Z,997.1
2017-11-05T00:26:24.559Z,997
2017-11-05T00:27:26.573Z,997
2017-11-05T00:28:28.609Z,997
2017-11-05T00:29:30.620Z,997
2017-11-05T00:30:32.644Z,997
2017-11-05T00:31:34.674Z,997
2017-11-05T00:32:36.683Z,997.1
2017-11-05T00:33:38.716Z,997
2017-11-05T00:34:40.724Z,997
2017-11-05T00:35:42.753Z,996.9
2017-11-05T00:36:44.781Z,996.9
2017-11-05T00:37:47.511Z,996.9
2017-11-05T00:38:49.532Z,996.9
2017-11-05T00:39:51.560Z,996.9
2017-11-05T00:40:53.586Z,996.9
2017-11-05T00:41:55.628Z,996.9
2017-11-05T00:42:57.643Z,997
2017-11-05T00:43:59.668Z,997
2017-11-05T00:45:01.686Z,997
2017-11-05T00:46:03.717Z,997
2017-11-05T00:47:05.738Z,997
2017-11-05T00:48:07.763Z,997
2017-11-05T00:49:09.789Z,997
2017-11-05T00:50:11.812Z,997
2017-11-05T00:51:13.825Z,997
2017-11-05T00:52:15.855Z,996.9
2017-11-05T00:53:17.880Z,997
2017-11-05T00:54:19.908Z,996.9
2017-11-05T00:55:21.929Z,997
2017-11-05T00:56:23.959Z,997
2017-11-05T00:57:25.993Z,996.9
2017-11-05T00:58:28.008Z,997
2017-11-05T00:59:30.031Z,997
2017-11-05T01:00:32.066Z,997
2017-11-05T01:01:34.089Z,997
2017-11-05T01:02:36.108Z,997
2017-11-05T01:03:38.132Z,996.9
2017-11-05T01:04:40.157Z,997
2017-11-05T01:05:42.192Z,997
2017-11-05T01:06:44.200Z,996.9
2017-11-05T01:07:46.238Z,997
2017-11-05T01:08:48.274Z,996.9
2017-11-05T01:09:50.281Z,996.9
2017-11-05T01:10:52.306Z,996.9
2017-11-05T01:11:54.332Z,996.9
2017-11-05T01:12:56.357Z,996.9
2017-11-05T01:13:58.392Z,996.9
2017-11-05T01:15:00.395Z,996.9
2017-11-05T01:16:02.416Z,996.9
2017-11-05T01:17:04.812Z,996.9
2017-11-05T01:18:06.838Z,996.8
2017-11-05T01:19:08.855Z,996.8
2017-11-05T01:20:10.882Z,996.8
2017-11-05T01:21:12.912Z,996.8
2017-11-05T01:22:14.932Z,996.8
2017-11-05T01:23:16.959Z,996.8
2017-11-05T01:24:18.975Z,996.8
2017-11-05T01:25:21.011Z,996.8
2017-11-05T01:26:23.018Z,996.8
2017-11-05T01:27:25.053Z,996.8
2017-11-05T01:28:27.077Z,996.8
2017-11-05T01:29:29.104Z,996.8
2017-11-05T01:30:31.127Z,996.9
2017-11-05T01:31:33.152Z,996.9
2017-11-05T01:32:35.181Z,996.8
2017-11-05T01:33:37.205Z,996.8
2017-11-05T01:34:39.229Z,996.8
2017-11-05T01:35:41.259Z,996.8
2017-11-05T01:36:43.283Z,996.9
2017-11-05T01:37:45.306Z,996.9
2017-11-05T01:38:47.321Z,996.8
2017-11-05T01:39:49.341Z,996.8
2017-11-05T01:40:51.368Z,996.8
2017-11-05T01:41:53.394Z,996.8
2017-11-05T01:42:55.419Z,996.8
2017-11-05T01:43:57.438Z,996.8
2017-11-05T01:44:59.460Z,996.7
2017-11-05T01:46:01.481Z,996.7
2017-11-05T01:47:03.499Z,996.8
2017-11-05T01:48:05.539Z,996.7
2017-11-05T01:49:07.564Z,996.7
2017-11-05T01:50:09.584Z,996.8
2017-11-05T01:51:11.603Z,996.8
2017-11-05T01:52:13.627Z,996.7
2017-11-05T01:53:15.654Z,996.7
2017-11-05T01:54:17.674Z,996.7
2017-11-05T01:55:19.709Z,996.7
2017-11-05T01:56:21.729Z,996.7
2017-11-05T01:57:23.758Z,996.7
2017-11-05T01:58:25.776Z,996.8
2017-11-05T01:59:27.811Z,996.8
2017-11-05T02:00:29.837Z,996.8
2017-11-05T02:01:31.855Z,996.8
2017-11-05T02:02:33.876Z,996.8
2017-11-05T02:03:35.898Z,996.7
2017-11-05T02:04:37.914Z,996.7
2017-11-05T02:05:39.939Z,996.6
2017-11-05T02:06:41.966Z,996.7
2017-11-05T02:07:44.358Z,996.8
2017-11-05T02:08:46.724Z,996.8
2017-11-05T02:09:48.753Z,996.8
2017-11-05T02:10:50.782Z,996.8
2017-11-05T02:11:53.151Z,996.8
2017-11-05T02:12:55.165Z,996.8
2017-11-05T02:13:57.202Z,996.8
2017-11-05T02:14:59.221Z,996.8
2017-11-05T02:16:01.254Z,996.8
2017-11-05T02:17:03.279Z,996.8
2017-11-05T02:18:05.312Z,996.8
2017-11-05T02:19:07.334Z,996.7
2017-11-05T02:20:09.368Z,996.7
2017-11-05T02:21:11.373Z,996.7
2017-11-05T02:22:13.409Z,996.7
2017-11-05T02:23:15.424Z,996.7
2017-11-05T02:24:17.455Z,996.7
2017-11-05T02:25:19.479Z,996.7
2017-11-05T02:26:21.504Z,996.8
2017-11-05T02:27:23.526Z,996.8
2017-11-05T02:28:25.902Z,996.8
2017-11-05T02:29:27.927Z,996.9
2017-11-05T02:30:29.962Z,996.9
2017-11-05T02:31:32.336Z,996.7
2017-11-05T02:32:34.361Z,996.8
2017-11-05T02:33:36.377Z,996.8
2017-11-05T02:34:38.408Z,996.8
2017-11-05T02:35:40.430Z,996.8
2017-11-05T02:36:42.455Z,996.8
2017-11-05T02:37:44.480Z,996.7
2017-11-05T02:38:46.499Z,996.8
2017-11-05T02:39:48.535Z,996.8
2017-11-05T02:40:50.556Z,996.8
2017-11-05T02:41:52.590Z,996.8
2017-11-05T02:42:55.336Z,996.7
2017-11-05T02:43:57.353Z,996.7
2017-11-05T02:44:59.764Z,996.8
2017-11-05T02:46:01.784Z,996.7
2017-11-05T02:47:03.816Z,996.8
2017-11-05T02:48:05.848Z,996.8
2017-11-05T02:49:07.862Z,996.8
2017-11-05T02:50:10.276Z,996.8
2017-11-05T02:51:12.302Z,996.8
2017-11-05T02:52:14.329Z,996.8
2017-11-05T02:53:16.698Z,996.8
2017-11-05T02:54:18.732Z,996.8
2017-11-05T02:55:20.758Z,996.8
2017-11-05T02:56:22.778Z,996.8
2017-11-05T02:57:25.168Z,996.8
2017-11-05T02:58:27.194Z,996.7
2017-11-05T02:59:29.218Z,996.7
2017-11-05T03:00:31.242Z,996.7
2017-11-05T03:01:33.273Z,996.7
2017-11-05T03:02:35.302Z,996.7
2017-11-05T03:03:37.327Z,996.7
2017-11-05T03:04:39.350Z,996.7
2017-11-05T03:05:41.380Z,996.8
2017-11-05T03:06:43.406Z,996.7
2017-11-05T03:07:45.431Z,996.8
2017-11-05T03:08:47.454Z,996.8
2017-11-05T03:09:49.479Z,996.7
2017-11-05T03:10:51.507Z,996.8
2017-11-05T03:11:53.886Z,996.8
2017-11-05T03:12:55.899Z,996.8
2017-11-05T03:13:57.943Z,996.8
2017-11-05T03:14:59.961Z,996.8
2017-11-05T03:16:01.979Z,996.8
2017-11-05T03:17:04.003Z,996.8
2017-11-05T03:18:06.021Z,996.8
2017-11-05T03:19:08.047Z,996.8
2017-11-05T03:20:10.060Z,996.8
2017-11-05T03:21:12.080Z,996.7
2017-11-05T03:22:14.117Z,996.8
2017-11-05T03:23:16.133Z,996.7
2017-11-05T03:24:18.148Z,996.7
2017-11-05T03:25:20.177Z,996.7
2017-11-05T03:26:22.205Z,996.7
2017-11-05T03:27:24.232Z,996.8
2017-11-05T03:28:26.246Z,996.7
2017-11-05T03:29:28.275Z,996.7
2017-11-05T03:30:30.295Z,996.7
2017-11-05T03:31:32.316Z,996.8
2017-11-05T03:32:34.341Z,996.8
2017-11-05T03:33:36.745Z,996.9
2017-11-05T03:34:38.778Z,996.9
2017-11-05T03:35:40.807Z,996.9
2017-11-05T03:36:42.815Z,996.9
2017-11-05T03:37:44.853Z,996.9
2017-11-05T03:38:46.864Z,996.9
2017-11-05T03:39:48.889Z,996.8
2017-11-05T03:40:50.916Z,996.8
2017-11-05T03:41:53.290Z,996.8
2017-11-05T03:42:55.318Z,996.8
2017-11-05T03:43:57.345Z,996.8
2017-11-05T03:44:59.366Z,996.8
2017-11-05T03:46:01.382Z,996.8
2017-11-05T03:47:03.422Z,996.8
2017-11-05T03:48:05.432Z,996.8
2017-11-05T03:49:07.837Z,996.9
2017-11-05T03:50:09.861Z,996.8
2017-11-05T03:51:11.887Z,996.8
2017-11-05T03:52:13.909Z,996.8
2017-11-05T03:53:15.933Z,996.9
2017-11-05T03:54:17.953Z,996.9
2017-11-05T03:55:20.347Z,996.8
2017-11-05T03:56:22.367Z,996.9
2017-11-05T03:57:24.391Z,996.8
2017-11-05T03:58:26.410Z,996.8
2017-11-05T03:59:28.432Z,996.8
2017-11-05T04:00:30.451Z,996.9
2017-11-05T04:01:32.475Z,996.8
2017-11-05T04:02:34.497Z,996.8
2017-11-05T04:03:36.884Z,996.8
2017-11-05T04:04:38.897Z,996.8
2017-11-05T04:05:40.926Z,996.8
2017-11-05T04:06:42.957Z,996.8
2017-11-05T04:07:44.978Z,996.8
2017-11-05T04:08:46.990Z,996.8
2017-11-05T04:09:49.026Z,996.8
2017-11-05T04:10:51.049Z,996.7
2017-11-05T04:11:53.068Z,996.8
2017-11-05T04:12:55.097Z,996.7
2017-11-05T04:13:57.114Z,996.8
2017-11-05T04:14:59.142Z,996.8
2017-11-05T04:16:01.509Z,996.8
2017-11-05T04:17:03.544Z,996.7
2017-11-05T04:18:05.570Z,996.8
2017-11-05T04:19:07.581Z,996.8
2017-11-05T04:20:09.608Z,996.8
2017-11-05T04:21:11.630Z,996.8
2017-11-05T04:22:13.655Z,996.8
2017-11-05T04:23:16.033Z,996.9
2017-11-05T04:24:18.400Z,996.9
2017-11-05T04:25:20.421Z,996.8
2017-11-05T04:26:22.457Z,996.8
2017-11-05T04:27:24.482Z,996.9
2017-11-05T04:28:26.500Z,996.8
2017-11-05T04:29:28.521Z,996.8
2017-11-05T04:30:30.548Z,996.8
2017-11-05T04:31:32.568Z,996.8
2017-11-05T04:32:34.590Z,996.8
2017-11-05T04:33:36.609Z,996.8
2017-11-05T04:34:39.022Z,996.8
2017-11-05T04:35:41.033Z,996.8
2017-11-05T04:36:43.064Z,996.8
2017-11-05T04:37:45.438Z,996.7
2017-11-05T04:38:47.461Z,996.7
2017-11-05T04:39:49.484Z,996.7
2017-11-05T04:40:51.857Z,996.7
2017-11-05T04:41:54.230Z,996.7
2017-11-05T04:42:56.265Z,996.7
2017-11-05T04:43:58.290Z,996.8
2017-11-05T04:45:00.308Z,996.8
2017-11-05T04:46:02.324Z,996.8
2017-11-05T04:47:04.346Z,996.8
2017-11-05T04:48:06.367Z,996.8
2017-11-05T04:49:08.386Z,996.8
2017-11-05T04:50:10.421Z,996.8
2017-11-05T04:51:12.444Z,996.8
2017-11-05T04:52:14.456Z,996.8
2017-11-05T04:53:16.485Z,996.8
2017-11-05T04:54:18.507Z,996.9
2017-11-05T04:55:20.538Z,996.8
2017-11-05T04:56:22.563Z,996.9
2017-11-05T04:57:24.583Z,996.9
2017-11-05T04:58:26.624Z,996.8
2017-11-05T04:59:28.624Z,996.8
2017-11-05T05:00:30.653Z,996.9
2017-11-05T05:01:32.684Z,996.9
2017-11-05T05:02:34.704Z,997
2017-11-05T05:03:36.730Z,996.9
2017-11-05T05:04:38.752Z,996.9
2017-11-05T05:05:40.778Z,996.8
2017-11-05T05:06:42.816Z,996.9
2017-11-05T05:07:45.207Z,996.9
2017-11-05T05:08:47.212Z,996.9
2017-11-05T05:09:49.236Z,996.9
2017-11-05T05:10:51.270Z,996.8
2017-11-05T05:11:53.290Z,996.8
2017-11-05T05:12:55.311Z,996.8
2017-11-05T05:13:57.341Z,996.8
2017-11-05T05:14:59.363Z,996.8
2017-11-05T05:16:01.376Z,996.8
2017-11-05T05:17:03.396Z,996.8
2017-11-05T05:18:05.433Z,996.8
2017-11-05T05:19:07.456Z,996.8
2017-11-05T05:20:09.477Z,996.8
2017-11-05T05:21:11.499Z,996.9
2017-11-05T05:22:13.530Z,996.9
2017-11-05T05:23:15.559Z,996.9
2017-11-05T05:24:17.577Z,997
2017-11-05T05:25:19.610Z,997
2017-11-05T05:26:21.629Z,997
2017-11-05T05:27:23.650Z,997
2017-11-05T05:28:25.674Z,997
2017-11-05T05:29:27.722Z,997
2017-11-05T05:30:29.790Z,997
2017-11-05T05:31:31.802Z,997
2017-11-05T05:32:33.836Z,997
2017-11-05T05:33:35.865Z,997
2017-11-05T05:34:37.878Z,996.9
2017-11-05T05:35:39.903Z,997
2017-11-05T05:36:41.933Z,996.9
2017-11-05T05:37:43.956Z,996.9
2017-11-05T05:38:45.983Z,996.9
2017-11-05T05:39:47.995Z,996.9
2017-11-05T05:40:50.022Z,996.9
2017-11-05T05:41:52.062Z,997
2017-11-05T05:42:54.086Z,997
2017-11-05T05:43:56.096Z,997
2017-11-05T05:44:58.125Z,997
2017-11-05T05:46:00.156Z,997
2017-11-05T05:47:02.176Z,997.1
2017-11-05T05:48:04.206Z,997.1
2017-11-05T05:49:06.618Z,997.1
2017-11-05T05:50:08.645Z,997.1
2017-11-05T05:51:10.658Z,997.1
2017-11-05T05:52:12.681Z,997.1
2017-11-05T05:53:14.708Z,997.2
2017-11-05T05:54:16.733Z,997.1
2017-11-05T05:55:18.758Z,997.2
2017-11-05T05:56:21.128Z,997.2
2017-11-05T05:57:23.157Z,997.3
2017-11-05T05:58:25.182Z,997.3
2017-11-05T05:59:27.207Z,997.3
2017-11-05T06:00:29.237Z,997.3
2017-11-05T06:01:31.611Z,997.3
2017-11-05T06:02:33.635Z,997.3
2017-11-05T06:03:36.003Z,997.3
2017-11-05T06:04:38.026Z,997.3
2017-11-05T06:05:40.049Z,997.3
2017-11-05T06:06:42.065Z,997.3
2017-11-05T06:07:44.091Z,997.3
2017-11-05T06:08:46.110Z,997.4
2017-11-05T06:09:48.152Z,997.3
2017-11-05T06:10:50.149Z,997.4
2017-11-05T06:11:52.168Z,997.4
2017-11-05T06:12:54.208Z,997.4
2017-11-05T06:13:56.234Z,997.3
2017-11-05T06:14:58.256Z,997.4
2017-11-05T06:16:00.284Z,997.4
2017-11-05T06:17:02.679Z,997.3
2017-11-05T06:18:05.053Z,997.3
2017-11-05T06:19:07.072Z,997.3
2017-11-05T06:20:09.104Z,997.3
2017-11-05T06:21:11.124Z,997.3
2017-11-05T06:22:13.157Z,997.3
2017-11-05T06:23:15.175Z,997.3
2017-11-05T06:24:17.196Z,997.3
2017-11-05T06:25:19.224Z,997.3
2017-11-05T06:26:21.251Z,997.3
2017-11-05T06:27:23.276Z,997.4
2017-11-05T06:28:25.294Z,997.4
2017-11-05T06:29:27.319Z,997.4
2017-11-05T06:30:29.350Z,997.4
2017-11-05T06:31:31.366Z,997.4
2017-11-05T06:32:33.392Z,997.4
2017-11-05T06:33:35.416Z,997.5
2017-11-05T06:34:37.440Z,997.5
2017-11-05T06:35:39.458Z,997.4
2017-11-05T06:36:41.475Z,997.4
2017-11-05T06:37:43.523Z,997.3
2017-11-05T06:38:45.526Z,997.3
2017-11-05T06:39:47.553Z,997.3
2017-11-05T06:40:49.581Z,997.4
2017-11-05T06:41:51.603Z,997.4
2017-11-05T06:42:53.982Z,997.4
2017-11-05T06:43:56.009Z,997.4
2017-11-05T06:44:58.028Z,997.3
2017-11-05T06:46:00.063Z,997.3
2017-11-05T06:47:02.084Z,997.4
2017-11-05T06:48:04.462Z,997.4
2017-11-05T06:49:06.489Z,997.3
2017-11-05T06:50:08.509Z,997.4
2017-11-05T06:51:10.537Z,997.4
2017-11-05T06:52:12.566Z,997.4
2017-11-05T06:53:14.588Z,997.5
2017-11-05T06:54:16.617Z,997.5
2017-11-05T06:55:18.626Z,997.5
2017-11-05T06:56:20.656Z,997.5
2017-11-05T06:57:22.681Z,997.5
2017-11-05T06:58:24.699Z,997.5
2017-11-05T06:59:26.737Z,997.5
2017-11-05T07:00:28.759Z,997.5
2017-11-05T07:01:30.784Z,997.5
2017-11-05T07:02:32.810Z,997.5
2017-11-05T07:03:34.833Z,997.4
2017-11-05T07:04:37.223Z,997.4
2017-11-05T07:05:39.241Z,997.5
2017-11-05T07:06:41.265Z,997.5
2017-11-05T07:07:43.290Z,997.5
2017-11-05T07:08:45.309Z,997.5
2017-11-05T07:09:47.339Z,997.5
2017-11-05T07:10:49.360Z,997.5
2017-11-05T07:11:51.749Z,997.4
2017-11-05T07:12:53.780Z,997.5
2017-11-05T07:13:55.793Z,997.5
2017-11-05T07:14:58.258Z,997.5
2017-11-05T07:16:00.289Z,997.5
2017-11-05T07:17:02.330Z,997.5
2017-11-05T07:18:04.355Z,997.5
2017-11-05T07:19:06.389Z,997.6
2017-11-05T07:20:08.413Z,997.5
2017-11-05T07:21:10.437Z,997.6
2017-11-05T07:22:12.470Z,997.6
2017-11-05T07:23:14.495Z,997.6
2017-11-05T07:24:16.519Z,997.6
2017-11-05T07:25:18.547Z,997.6
2017-11-05T07:26:20.606Z,997.6
2017-11-05T07:27:22.994Z,997.6
2017-11-05T07:28:25.015Z,997.6
2017-11-05T07:29:27.041Z,997.6
2017-11-05T07:30:29.075Z,997.6
2017-11-05T07:31:31.095Z,997.6
2017-11-05T07:32:33.140Z,997.6
2017-11-05T07:33:35.152Z,997.6
2017-11-05T07:34:37.178Z,997.6
2017-11-05T07:35:39.207Z,997.6
2017-11-05T07:36:41.230Z,997.6
2017-11-05T07:37:43.254Z,997.6
2017-11-05T07:38:45.277Z,997.5
2017-11-05T07:39:47.310Z,997.5
2017-11-05T07:40:49.332Z,997.5
2017-11-05T07:41:51.357Z,997.5
2017-11-05T07:42:53.377Z,997.6
2017-11-05T07:43:55.414Z,997.6
2017-11-05T07:44:57.437Z,997.6
2017-11-05T07:45:59.468Z,997.7
2017-11-05T07:47:01.508Z,997.7
2017-11-05T07:48:03.897Z,997.7
2017-11-05T07:49:05.922Z,997.8
2017-11-05T07:50:07.952Z,997.7
2017-11-05T07:51:09.986Z,997.8
2017-11-05T07:52:12.237Z,997.8
2017-11-05T07:53:14.607Z,997.8
2017-11-05T07:54:16.634Z,997.8
2017-11-05T07:55:18.657Z,997.8
2017-11-05T07:56:20.684Z,997.9
2017-11-05T07:57:22.713Z,997.8
2017-11-05T07:58:24.735Z,997.8
2017-11-05T07:59:26.777Z,997.8
2017-11-05T08:00:28.809Z,997.8
2017-11-05T08:01:30.819Z,997.8
2017-11-05T08:02:32.856Z,997.7
2017-11-05T08:03:34.875Z,997.8
2017-11-05T08:04:36.910Z,997.8
2017-11-05T08:05:38.938Z,997.8
2017-11-05T08:06:40.969Z,997.8
2017-11-05T08:07:43.005Z,997.8
2017-11-05T08:08:45.019Z,997.8
2017-11-05T08:09:47.393Z,997.8
2017-11-05T08:10:49.432Z,997.8
2017-11-05T08:11:51.460Z,997.8
2017-11-05T08:12:53.480Z,997.8
2017-11-05T08:13:55.531Z,997.8
2017-11-05T08:14:57.558Z,997.9
2017-11-05T08:15:59.590Z,997.9
2017-11-05T08:17:01.614Z,997.9
2017-11-05T08:18:03.651Z,997.9
2017-11-05T08:19:05.670Z,997.9
2017-11-05T08:20:07.711Z,997.9
2017-11-05T08:21:09.729Z,997.9
2017-11-05T08:22:11.760Z,997.9
2017-11-05T08:23:13.788Z,997.8
2017-11-05T08:24:15.821Z,997.9
2017-11-05T08:25:17.841Z,997.8
2017-11-05T08:26:19.867Z,997.8
2017-11-05T08:27:21.893Z,997.8
2017-11-05T08:28:23.926Z,997.8
2017-11-05T08:29:25.943Z,997.8
2017-11-05T08:30:27.976Z,997.8
2017-11-05T08:31:30.013Z,997.7
2017-11-05T08:32:32.023Z,997.8
2017-11-05T08:33:34.044Z,997.8
2017-11-05T08:34:36.100Z,997.8
2017-11-05T08:35:38.120Z,997.8
2017-11-05T08:36:40.145Z,997.8
2017-11-05T08:37:42.178Z,997.8
2017-11-05T08:38:44.202Z,997.8
2017-11-05T08:39:46.240Z,997.8
2017-11-05T08:40:48.286Z,997.9
2017-11-05T08:41:50.687Z,997.9
2017-11-05T08:42:52.718Z,997.9
2017-11-05T08:43:54.732Z,997.8
2017-11-05T08:44:56.762Z,997.8
2017-11-05T08:45:58.791Z,997.8
2017-11-05T08:47:00.816Z,997.8
2017-11-05T08:48:02.848Z,997.8
2017-11-05T08:49:04.856Z,997.8
2017-11-05T08:50:06.887Z,997.8
2017-11-05T08:51:08.921Z,997.8
2017-11-05T08:52:10.947Z,997.8
2017-11-05T08:53:12.961Z,997.9
2017-11-05T08:54:14.989Z,997.9
2017-11-05T08:55:17.374Z,997.9
2017-11-05T08:56:19.391Z,998
2017-11-05T08:57:21.415Z,998
2017-11-05T08:58:23.447Z,998
2017-11-05T08:59:25.474Z,998.1
2017-11-05T09:00:27.481Z,998.1
2017-11-05T09:01:29.507Z,998.2
2017-11-05T09:02:31.545Z,998.3
2017-11-05T09:03:33.564Z,998.3
2017-11-05T09:04:35.585Z,998.3
2017-11-05T09:05:37.625Z,998.4
2017-11-05T09:06:39.643Z,998.4
2017-11-05T09:07:41.675Z,998.4
2017-11-05T09:08:43.701Z,998.4
2017-11-05T09:09:45.735Z,998.4
2017-11-05T09:10:47.760Z,998.4
2017-11-05T09:11:49.781Z,998.4
2017-11-05T09:12:51.800Z,998.4
2017-11-05T09:13:54.172Z,998.4
2017-11-05T09:14:56.215Z,998.4
2017-11-05T09:15:58.238Z,998.3
2017-11-05T09:17:00.263Z,998.4
2017-11-05T09:18:02.642Z,998.4
2017-11-05T09:19:04.669Z,998.5
2017-11-05T09:20:06.693Z,998.5
2017-11-05T09:21:08.718Z,998.5
2017-11-05T09:22:10.757Z,998.5
2017-11-05T09:23:13.142Z,998.5
2017-11-05T09:24:15.512Z,998.5
2017-11-05T09:25:17.544Z,998.5
2017-11-05T09:26:19.569Z,998.5
2017-11-05T09:27:21.597Z,998.5
2017-11-05T09:28:23.622Z,998.5
2017-11-05T09:29:25.646Z,998.5
2017-11-05T09:30:28.041Z,998.5
2017-11-05T09:31:30.078Z,998.5
2017-11-05T09:32:32.099Z,998.5
2017-11-05T09:33:34.127Z,998.5
2017-11-05T09:34:36.155Z,998.5
2017-11-05T09:35:38.184Z,998.5
2017-11-05T09:36:40.207Z,998.5
2017-11-05T09:37:42.230Z,998.5
2017-11-05T09:38:44.264Z,998.5
2017-11-05T09:39:46.662Z,998.5
2017-11-05T09:40:48.670Z,998.5
2017-11-05T09:41:50.699Z,998.5
2017-11-05T09:42:52.726Z,998.4
2017-11-05T09:43:55.097Z,998.4
2017-11-05T09:44:57.479Z,998.3
2017-11-05T09:45:59.498Z,998.4
2017-11-05T09:47:01.524Z,998.3
2017-11-05T09:48:03.550Z,998.3
2017-11-05T09:49:05.572Z,998.3
2017-11-05T09:50:07.614Z,998.3
2017-11-05T09:51:09.636Z,998.2
2017-11-05T09:52:11.657Z,998.2
2017-11-05T09:53:13.683Z,998.2
2017-11-05T09:54:15.717Z,998.1
2017-11-05T09:55:17.734Z,998.1
2017-11-05T09:56:19.761Z,998.1
2017-11-05T09:57:21.798Z,998.1
2017-11-05T09:58:24.204Z,998.1
2017-11-05T09:59:26.222Z,998
2017-11-05T10:00:28.253Z,998.1
2017-11-05T10:01:30.627Z,998.1
2017-11-05T10:02:32.652Z,998.1
2017-11-05T10:03:35.034Z,998.1
2017-11-05T10:04:37.064Z,998.1
2017-11-05T10:05:39.093Z,998.1
2017-11-05T10:06:41.141Z,998.1
2017-11-05T10:11:26.159Z,998.2
2017-11-05T10:13:00.694Z,998
2017-11-05T10:14:06.136Z,998
2017-11-05T10:15:08.501Z,998
2017-11-05T10:16:10.878Z,998
2017-11-05T10:17:13.244Z,998
2017-11-05T10:18:15.620Z,997.9
2017-11-05T10:19:18.078Z,997.9
2017-11-05T10:20:20.527Z,998
2017-11-05T10:21:22.898Z,998
2017-11-05T10:22:25.283Z,998
2017-11-05T10:24:12.528Z,998
2017-11-05T10:25:15.112Z,998
2017-11-05T10:26:17.543Z,998
2017-11-05T10:27:19.977Z,998
2017-11-05T10:28:22.408Z,998
2017-11-05T10:29:24.849Z,998
2017-11-05T10:30:27.642Z,998
2017-11-05T10:31:30.072Z,998
2017-11-05T10:32:32.873Z,998
2017-11-05T10:33:35.661Z,998
2017-11-05T10:34:38.086Z,998.1
2017-11-05T10:35:40.520Z,998.1
2017-11-05T10:36:42.951Z,998.1
2017-11-05T10:37:45.382Z,998.1
2017-11-05T10:38:47.819Z,998.2
2017-11-05T10:39:50.236Z,998.2
2017-11-05T10:40:52.679Z,998.2
2017-11-05T10:41:55.107Z,998.2
2017-11-05T10:42:57.537Z,998.2
2017-11-05T10:43:59.966Z,998.2
2017-11-05T10:45:47.639Z,998.2
2017-11-05T10:46:50.117Z,998.2
2017-11-05T10:47:52.629Z,998.2
2017-11-05T10:48:55.592Z,998.2
2017-11-05T10:49:58.044Z,998.1
2017-11-05T10:51:00.428Z,998.1
2017-11-05T10:52:02.801Z,998.2
2017-11-05T10:53:05.186Z,998.1
2017-11-05T10:54:07.558Z,998.1
2017-11-05T10:55:09.939Z,998.1
2017-11-05T10:56:12.314Z,998.1
2017-11-05T10:57:14.705Z,998
2017-11-05T10:58:17.082Z,998.1
2017-11-05T10:59:19.458Z,998
2017-11-05T11:00:21.834Z,998.1
2017-11-05T11:01:24.208Z,998.1
2017-11-05T11:02:26.592Z,998.1
2017-11-05T11:03:28.976Z,998.1
2017-11-05T11:04:31.340Z,998.1
2017-11-05T11:05:33.733Z,998.1
2017-11-05T11:06:36.114Z,998.1
2017-11-05T11:07:38.497Z,998.2
2017-11-05T11:08:40.873Z,998.2
2017-11-05T11:09:43.254Z,998.2
2017-11-05T11:10:45.627Z,998.2
2017-11-05T11:11:48.024Z,998.2
2017-11-05T11:12:50.401Z,998.2
2017-11-05T11:13:52.767Z,998.2
2017-11-05T11:14:55.157Z,998.2
2017-11-05T11:15:57.535Z,998.3
2017-11-05T11:17:00.270Z,998.3
2017-11-05T11:18:03.007Z,998.3
2017-11-05T11:19:05.387Z,998.3
2017-11-05T11:20:07.760Z,998.4
2017-11-05T11:21:10.139Z,998.3
2017-11-05T11:22:12.507Z,998.4
2017-11-05T11:23:14.894Z,998.4
2017-11-05T11:24:17.268Z,998.4
2017-11-05T11:25:19.654Z,998.4
2017-11-05T11:26:22.027Z,998.5
2017-11-05T11:27:24.417Z,998.5
2017-11-05T11:28:26.790Z,998.5
2017-11-05T11:29:29.530Z,998.5
2017-11-05T11:30:31.905Z,998.5
2017-11-05T11:31:34.286Z,998.5
2017-11-05T11:32:36.663Z,998.5
2017-11-05T11:33:39.048Z,998.5
2017-11-05T11:34:41.427Z,998.6
2017-11-05T11:35:43.814Z,998.6
2017-11-05T11:36:46.189Z,998.6
2017-11-05T11:37:48.559Z,998.6
2017-11-05T11:38:51.285Z,998.6
2017-11-05T11:39:53.666Z,998.6
2017-11-05T11:40:56.048Z,998.5
2017-11-05T11:41:58.429Z,998.6
2017-11-05T11:43:00.808Z,998.6
2017-11-05T11:44:03.192Z,998.5
2017-11-05T11:45:05.573Z,998.6
2017-11-05T11:46:07.949Z,998.5
2017-11-05T11:47:10.345Z,998.5
2017-11-05T11:48:12.730Z,998.5
2017-11-05T11:49:15.093Z,998.5
2017-11-05T11:50:17.478Z,998.6
2017-11-05T11:51:19.852Z,998.6
2017-11-05T11:52:22.236Z,998.6
2017-11-05T11:53:24.620Z,998.7
2017-11-05T11:54:26.993Z,998.7
2017-11-05T11:55:29.372Z,998.6
2017-11-05T11:56:31.761Z,998.6
2017-11-05T11:57:34.491Z,998.6
2017-11-05T11:58:36.876Z,998.6
2017-11-05T11:59:39.255Z,998.6
2017-11-05T12:00:41.630Z,998.6
2017-11-05T12:01:44.019Z,998.6
2017-11-05T12:02:46.404Z,998.5
2017-11-05T12:03:48.782Z,998.6
2017-11-05T12:04:51.161Z,998.5
2017-11-05T12:05:53.543Z,998.5
2017-11-05T12:06:56.269Z,998.5
2017-11-05T12:07:58.656Z,998.6
2017-11-05T12:09:01.403Z,998.6
2017-11-05T12:10:03.775Z,998.7
2017-11-05T12:11:06.168Z,998.6
2017-11-05T12:12:08.548Z,998.7
2017-11-05T12:13:10.920Z,998.7
2017-11-05T12:14:13.301Z,998.7
2017-11-05T12:15:15.679Z,998.6
2017-11-05T12:16:18.052Z,998.6
2017-11-05T12:17:20.425Z,998.7
2017-11-05T12:18:22.823Z,998.7
2017-11-05T12:19:25.185Z,998.7
2017-11-05T12:20:27.569Z,998.7
2017-11-05T12:21:29.956Z,998.8
2017-11-05T12:22:32.682Z,998.7
2017-11-05T12:23:35.065Z,998.8
2017-11-05T12:24:37.448Z,998.8
2017-11-05T12:25:39.819Z,998.8
2017-11-05T12:26:42.208Z,998.8
2017-11-05T12:27:44.934Z,998.8
2017-11-05T12:28:47.326Z,998.8
2017-11-05T12:29:49.704Z,998.8
2017-11-05T12:30:52.096Z,998.8
2017-11-05T12:31:54.471Z,998.8
2017-11-05T12:32:56.855Z,998.8
2017-11-05T12:33:59.229Z,998.8
2017-11-05T12:35:01.606Z,998.8
2017-11-05T12:36:04.333Z,998.8
2017-11-05T12:37:06.707Z,998.9
2017-11-05T12:38:09.086Z,998.8
2017-11-05T12:39:11.471Z,998.9
2017-11-05T12:40:13.846Z,998.9
2017-11-05T12:41:16.231Z,999
2017-11-05T12:42:18.606Z,999
2017-11-05T12:43:20.995Z,999
2017-11-05T12:44:23.360Z,999
2017-11-05T12:45:25.738Z,999
2017-11-05T12:46:28.120Z,999
2017-11-05T12:47:30.496Z,999
2017-11-05T12:48:33.254Z,999
2017-11-05T12:49:35.637Z,999.1
2017-11-05T12:50:38.012Z,999.1
2017-11-05T12:51:40.400Z,999.1
2017-11-05T12:52:42.788Z,999.1
2017-11-05T12:53:45.163Z,999.1
2017-11-05T12:54:47.540Z,999.1
2017-11-05T12:55:50.278Z,999.2
2017-11-05T12:56:52.652Z,999.1
2017-11-05T12:57:55.033Z,999.2
2017-11-05T12:58:57.411Z,999.1
2017-11-05T12:59:59.821Z,999.1
2017-11-05T13:01:02.172Z,999.2
2017-11-05T13:02:04.550Z,999.2
2017-11-05T13:03:06.919Z,999.2
2017-11-05T13:04:09.302Z,999.2
2017-11-05T13:05:11.688Z,999.3
2017-11-05T13:06:14.071Z,999.3
2017-11-05T13:07:16.442Z,999.2
2017-11-05T13:08:19.167Z,999.3
2017-11-05T13:09:21.541Z,999.2
2017-11-05T13:10:23.937Z,999.2
2017-11-05T13:11:26.306Z,999.2
2017-11-05T13:12:28.688Z,999.3
2017-11-05T13:13:31.411Z,999.3
2017-11-05T13:14:33.783Z,999.3
2017-11-05T13:15:36.158Z,999.3
2017-11-05T13:16:38.545Z,999.3
2017-11-05T13:17:41.281Z,999.3
2017-11-05T13:18:43.665Z,999.3
2017-11-05T13:19:46.049Z,999.3
2017-11-05T13:20:48.429Z,999.2
2017-11-05T13:21:51.154Z,999.3
2017-11-05T13:22:53.538Z,999.3
2017-11-05T13:23:55.917Z,999.3
2017-11-05T13:24:58.294Z,999.4
2017-11-05T13:26:00.676Z,999.4
2017-11-05T13:27:03.042Z,999.4
2017-11-05T13:28:05.419Z,999.4
2017-11-05T13:29:07.804Z,999.4
2017-11-05T13:30:10.184Z,999.4
2017-11-05T13:31:12.565Z,999.4
2017-11-05T13:32:14.951Z,999.4